createdAt,value
2022-08-01T00:01:01.178Z,91875.47
2022-08-01T00:04:04.871Z,91872.72
2022-08-01T00:07:07.919Z,91870.91
2022-08-01T00:10:14.181Z,91874.75
2022-08-01T00:13:17.303Z,91882.56
2022-08-01T00:16:20.396Z,91886.03
2022-08-01T00:19:23.384Z,91882.38
2022-08-01T00:22:26.595Z,91888.09
2022-08-01T00:25:33.859Z,91884.06
2022-08-01T00:28:37.701Z,91879.72
2022-08-01T00:31:40.712Z,91891.34
2022-08-01T00:34:43.710Z,91892.13
2022-08-01T00:37:46.751Z,91899.22
2022-08-01T00:40:49.937Z,91900.97
2022-08-01T00:43:53.070Z,91896.63
2022-08-01T00:46:56.075Z,91901.72
2022-08-01T00:49:59.196Z,91902.91
2022-08-01T00:53:03.247Z,91917.78
2022-08-01T00:56:06.606Z,91906.41
2022-08-01T00:59:10.362Z,91903.06
2022-08-01T01:02:14.712Z,91896.53
2022-08-01T01:05:19.057Z,91905.09
2022-08-01T01:08:29.232Z,91907.13
2022-08-01T01:11:46.083Z,91902.13
2022-08-01T01:14:52.038Z,91904.94
2022-08-01T01:17:58.401Z,91897.84
2022-08-01T01:21:04.204Z,91902.41
2022-08-01T01:24:37.940Z,91903.41
2022-08-01T01:27:49.773Z,91907.41
2022-08-01T01:30:55.353Z,91898.72
2022-08-01T01:34:02.155Z,91902.09
2022-08-01T01:37:09.480Z,91897.63
2022-08-01T01:40:13.726Z,91896.75
2022-08-01T01:43:18.329Z,91905.97
2022-08-01T01:46:28.640Z,91903.56
2022-08-01T01:49:34.640Z,91902.84
2022-08-01T01:52:39.965Z,91898.38
2022-08-01T01:55:49.703Z,91893.78
2022-08-01T01:59:01.571Z,91893.81
2022-08-01T02:02:07.029Z,91892.19
2022-08-01T02:05:13.340Z,91892.34
2022-08-01T02:08:18.110Z,91902.09
2022-08-01T02:11:25.957Z,91900.94
2022-08-01T02:14:30.925Z,91903.50
2022-08-01T02:17:38.241Z,91903.69
2022-08-01T02:20:41.393Z,91896.16
2022-08-01T02:23:45.748Z,91890.28
2022-08-01T02:26:50.971Z,91888.69
2022-08-01T02:30:06.928Z,91888.91
2022-08-01T02:33:18.887Z,91882.28
2022-08-01T02:36:30.960Z,91885.00
2022-08-01T02:39:38.464Z,91890.53
2022-08-01T02:42:47.274Z,91896.75
2022-08-01T02:45:55.892Z,91891.72
2022-08-01T02:49:02.619Z,91888.34
2022-08-01T02:52:16.122Z,91892.47
2022-08-01T02:55:20.932Z,91886.06
2022-08-01T02:58:29.394Z,91886.81
2022-08-01T03:01:36.164Z,91887.94
2022-08-01T03:04:42.743Z,91883.53
2022-08-01T03:07:48.510Z,91890.34
2022-08-01T03:10:53.592Z,91893.38
2022-08-01T03:13:58.782Z,91894.44
2022-08-01T03:17:02.790Z,91892.13
2022-08-01T03:20:07.937Z,91889.34
2022-08-01T03:23:13.103Z,91886.78
2022-08-01T03:26:16.476Z,91890.16
2022-08-01T03:29:26.304Z,91885.94
2022-08-01T03:32:31.500Z,91896.47
2022-08-01T03:35:47.497Z,91898.34
2022-08-01T03:38:53.294Z,91895.03
2022-08-01T03:42:01.163Z,91885.00
2022-08-01T03:45:13.548Z,91891.09
2022-08-01T03:48:20.171Z,91890.91
2022-08-01T03:51:24.594Z,91894.75
2022-08-01T03:54:32.421Z,91892.63
2022-08-01T03:57:37.062Z,91886.91
2022-08-01T04:00:41.535Z,91888.75
2022-08-01T04:03:46.003Z,91894.19
2022-08-01T04:06:52.752Z,91884.00
2022-08-01T04:09:56.039Z,91894.00
2022-08-01T04:12:59.079Z,91884.28
2022-08-01T04:16:02.208Z,91874.28
2022-08-01T04:19:05.332Z,91876.34
2022-08-01T04:22:10.229Z,91873.28
2022-08-01T04:25:19.200Z,91869.59
2022-08-01T04:28:24.141Z,91864.78
2022-08-01T04:31:28.018Z,91867.06
2022-08-01T04:34:34.095Z,91870.78
2022-08-01T04:37:38.946Z,91870.50
2022-08-01T04:40:45.868Z,91870.38
2022-08-01T04:43:49.539Z,91873.84
2022-08-01T04:46:56.210Z,91872.78
2022-08-01T04:49:59.647Z,91877.16
2022-08-01T04:53:04.750Z,91871.38
2022-08-01T04:56:08.429Z,91880.50
2022-08-01T04:59:29.919Z,91874.19
2022-08-01T05:02:32.978Z,91875.25
2022-08-01T05:05:36.591Z,91868.88
2022-08-01T05:08:39.643Z,91857.84
2022-08-01T05:11:42.817Z,91856.94
2022-08-01T05:14:46.272Z,91847.69
2022-08-01T05:17:49.294Z,91842.50
2022-08-01T05:20:53.330Z,91835.00
2022-08-01T05:23:56.563Z,91836.63
2022-08-01T05:27:00.136Z,91842.63
2022-08-01T05:30:03.874Z,91832.09
2022-08-01T05:33:06.956Z,91831.75
2022-08-01T05:36:10.225Z,91837.03
2022-08-01T05:39:13.777Z,91840.41
2022-08-01T05:42:16.878Z,91837.75
2022-08-01T05:45:19.977Z,91830.91
2022-08-01T05:48:22.977Z,91825.81
2022-08-01T05:51:26.535Z,91825.25
2022-08-01T05:54:30.062Z,91834.31
2022-08-01T05:57:33.189Z,91818.72
2022-08-01T06:00:36.533Z,91824.16
2022-08-01T06:03:39.623Z,91816.56
2022-08-01T06:06:42.690Z,91822.19
2022-08-01T06:09:45.694Z,91811.44
2022-08-01T06:12:48.838Z,91816.31
2022-08-01T06:15:52.034Z,91811.25
2022-08-01T06:18:56.779Z,91811.19
2022-08-01T06:22:00.106Z,91816.34
2022-08-01T06:25:03.178Z,91812.22
2022-08-01T06:28:06.283Z,91819.72
2022-08-01T06:31:09.426Z,91806.72
2022-08-01T06:34:12.466Z,91807.63
2022-08-01T06:37:16.197Z,91809.91
2022-08-01T06:40:19.551Z,91804.28
2022-08-01T06:43:22.926Z,91802.78
2022-08-01T06:46:30.289Z,91800.91
2022-08-01T06:49:35.273Z,91795.81
2022-08-01T06:52:38.845Z,91801.66
2022-08-01T06:55:42.214Z,91805.63
2022-08-01T06:58:45.290Z,91803.94
2022-08-01T07:01:48.408Z,91801.81
2022-08-01T07:04:51.497Z,91799.28
2022-08-01T07:07:54.789Z,91798.28
2022-08-01T07:11:00.818Z,91796.22
2022-08-01T07:14:04.833Z,91799.75
2022-08-01T07:17:07.928Z,91804.94
2022-08-01T07:20:13.924Z,91807.28
2022-08-01T07:23:22.535Z,91800.44
2022-08-01T07:26:25.862Z,91801.88
2022-08-01T07:29:29.146Z,91806.44
2022-08-01T07:32:32.306Z,91810.78
2022-08-01T07:35:35.910Z,91809.53
2022-08-01T07:38:38.954Z,91803.09
2022-08-01T07:41:53.232Z,91818.66
2022-08-01T07:45:05.445Z,91820.97
2022-08-01T07:48:09.773Z,91819.72
2022-08-01T07:51:13.781Z,91820.56
2022-08-01T07:54:16.867Z,91819.75
2022-08-01T07:57:20.034Z,91827.41
2022-08-01T08:00:23.184Z,91818.91
2022-08-01T08:03:26.325Z,91833.44
2022-08-01T08:06:29.465Z,91820.97
2022-08-01T08:09:37.441Z,91813.31
2022-08-01T08:12:41.312Z,91818.69
2022-08-01T08:15:48.211Z,91831.34
2022-08-01T08:18:51.717Z,91823.06
2022-08-01T08:21:54.691Z,91828.66
2022-08-01T08:25:00.886Z,91829.69
2022-08-01T08:28:04.101Z,91818.69
2022-08-01T08:31:07.568Z,91822.00
2022-08-01T08:34:29.443Z,91819.94
2022-08-01T08:37:39.036Z,91812.44
2022-08-01T08:40:50.815Z,91816.38
2022-08-01T08:43:54.996Z,91811.41
2022-08-01T08:46:59.576Z,91817.03
2022-08-01T08:50:05.393Z,91813.47
2022-08-01T08:53:14.759Z,91815.34
2022-08-01T08:56:22.755Z,91825.09
2022-08-01T08:59:26.444Z,91826.94
2022-08-01T09:02:29.497Z,91818.59
2022-08-01T09:05:38.626Z,91818.06
2022-08-01T09:08:42.647Z,91821.66
2022-08-01T09:11:46.515Z,91816.56
2022-08-01T09:15:00.195Z,91812.13
2022-08-01T09:18:03.176Z,91815.13
2022-08-01T09:21:20.887Z,91821.44
2022-08-01T09:24:30.341Z,91813.78
2022-08-01T09:27:35.089Z,91815.47
2022-08-01T09:30:41.299Z,91814.97
2022-08-01T09:33:55.027Z,91812.63
2022-08-01T09:37:00.752Z,91812.56
2022-08-01T09:40:03.906Z,91820.59
2022-08-01T09:43:15.020Z,91813.53
2022-08-01T09:46:20.458Z,91826.94
2022-08-01T09:49:49.741Z,91818.88
2022-08-01T09:52:58.568Z,91815.50
2022-08-01T09:56:13.016Z,91819.66
2022-08-01T09:59:17.804Z,91818.19
2022-08-01T10:02:40.649Z,91821.22
2022-08-01T10:05:50.060Z,91828.78
2022-08-01T10:08:53.329Z,91847.47
2022-08-01T10:11:57.536Z,91850.91
2022-08-01T10:15:00.767Z,91848.78
2022-08-01T10:18:26.052Z,91846.09
2022-08-01T10:21:45.536Z,91842.72
2022-08-01T10:24:58.940Z,91844.97
2022-08-01T10:28:06.854Z,91843.63
2022-08-01T10:31:13.183Z,91845.06
2022-08-01T10:34:20.189Z,91844.66
2022-08-01T10:37:27.834Z,91845.50
2022-08-01T10:40:31.923Z,91855.44
2022-08-01T10:43:35.449Z,91848.66
2022-08-01T10:46:45.743Z,91846.25
2022-08-01T10:50:10.261Z,91841.59
2022-08-01T10:53:30.839Z,91852.16
2022-08-01T10:56:52.159Z,91836.94
2022-08-01T10:59:59.437Z,91849.38
2022-08-01T11:03:05.460Z,91844.28
2022-08-01T11:06:08.796Z,91849.03
2022-08-01T11:09:36.672Z,91855.03
2022-08-01T11:12:44.584Z,91863.63
2022-08-01T11:15:50.317Z,91865.16
2022-08-01T11:18:54.249Z,91857.56
2022-08-01T11:22:01.510Z,91862.00
2022-08-01T11:25:05.309Z,91869.53
2022-08-01T11:28:34.605Z,91859.13
2022-08-01T11:31:38.553Z,91866.81
2022-08-01T11:34:57.949Z,91863.84
2022-08-01T11:38:32.718Z,91867.56
2022-08-01T11:41:39.444Z,91873.53
2022-08-01T11:44:52.800Z,91872.00
2022-08-01T11:47:57.645Z,91866.38
2022-08-01T11:51:02.131Z,91865.84
2022-08-01T11:54:05.558Z,91872.31
2022-08-01T11:57:12.386Z,91879.16
2022-08-01T12:00:20.183Z,91881.25
2022-08-01T12:03:34.836Z,91881.81
2022-08-01T12:06:37.638Z,91878.66
2022-08-01T12:09:44.777Z,91880.16
2022-08-01T12:13:02.862Z,91879.88
2022-08-01T12:16:10.346Z,91883.53
2022-08-01T12:19:23.580Z,91874.28
2022-08-01T12:22:27.081Z,91879.19
2022-08-01T12:25:31.011Z,91883.59
2022-08-01T12:28:42.221Z,91888.31
2022-08-01T12:31:45.416Z,91890.97
2022-08-01T12:34:49.179Z,91902.97
2022-08-01T12:37:57.971Z,91897.00
2022-08-01T12:41:01.017Z,91897.75
2022-08-01T12:44:04.154Z,91908.00
2022-08-01T12:47:09.015Z,91905.28
2022-08-01T12:50:18.895Z,91911.25
2022-08-01T12:53:22.821Z,91913.06
2022-08-01T12:56:35.835Z,91916.31
2022-08-01T12:59:38.855Z,91916.72
2022-08-01T13:02:43.879Z,91913.22
2022-08-01T13:05:57.626Z,91918.44
2022-08-01T13:09:08.306Z,91913.88
2022-08-01T13:12:11.697Z,91915.91
2022-08-01T13:15:26.807Z,91921.41
2022-08-01T13:18:34.616Z,91923.38
2022-08-01T13:21:54.373Z,91930.53
2022-08-01T13:25:19.815Z,91931.25
2022-08-01T13:28:28.320Z,91935.13
2022-08-01T13:31:35.809Z,91943.22
2022-08-01T13:34:39.298Z,91941.38
2022-08-01T13:37:43.805Z,91942.72
2022-08-01T13:40:47.314Z,91941.75
2022-08-01T13:43:58.919Z,91948.59
2022-08-01T13:47:14.775Z,91947.34
2022-08-01T13:50:20.190Z,91957.19
2022-08-01T13:53:23.268Z,91960.25
2022-08-01T13:56:26.571Z,91962.41
2022-08-01T13:59:29.759Z,91965.88
2022-08-01T14:02:32.847Z,91963.47
2022-08-01T14:05:35.883Z,91961.22
2022-08-01T14:08:38.908Z,91963.16
2022-08-01T14:11:45.863Z,91964.75
2022-08-01T14:14:49.467Z,91970.13
2022-08-01T14:17:53.587Z,91963.41
2022-08-01T14:21:01.639Z,91971.41
2022-08-01T14:24:09.425Z,91973.56
2022-08-01T14:27:12.615Z,91969.94
2022-08-01T14:30:16.263Z,91967.88
2022-08-01T14:33:19.603Z,91963.94
2022-08-01T14:36:30.724Z,91965.97
2022-08-01T14:39:34.950Z,91962.16
2022-08-01T14:42:40.095Z,91970.94
2022-08-01T14:45:43.584Z,91961.44
2022-08-01T14:48:46.830Z,91959.66
2022-08-01T14:51:50.133Z,91962.19
2022-08-01T14:54:53.480Z,91962.81
2022-08-01T14:57:56.705Z,91967.38
2022-08-01T15:01:00.318Z,91964.09
2022-08-01T15:04:04.556Z,91962.56
2022-08-01T15:07:08.757Z,91962.69
2022-08-01T15:10:12.289Z,91956.22
2022-08-01T15:13:15.503Z,91966.50
2022-08-01T15:16:18.831Z,91978.56
2022-08-01T15:19:22.116Z,91963.38
2022-08-01T15:22:27.515Z,91966.78
2022-08-01T15:25:41.115Z,91963.63
2022-08-01T15:28:45.436Z,91969.34
2022-08-01T15:31:48.774Z,91975.41
2022-08-01T15:34:52.160Z,91973.78
2022-08-01T15:37:55.459Z,91988.13
2022-08-01T15:40:58.783Z,91990.78
2022-08-01T15:44:02.204Z,91999.41
2022-08-01T15:47:06.134Z,91996.97
2022-08-01T15:50:09.766Z,92007.59
2022-08-01T15:53:13.284Z,92000.91
2022-08-01T15:56:16.738Z,92001.16
2022-08-01T15:59:20.027Z,92003.19
2022-08-01T16:02:26.480Z,92005.81
2022-08-01T16:05:29.923Z,92003.81
2022-08-01T16:08:33.848Z,91997.69
2022-08-01T16:11:42.340Z,91998.09
2022-08-01T16:14:46.447Z,92004.44
2022-08-01T16:17:49.814Z,92007.09
2022-08-01T16:20:53.023Z,92015.31
2022-08-01T16:23:56.396Z,92012.91
2022-08-01T16:27:00.026Z,92019.13
2022-08-01T16:30:03.370Z,92013.66
2022-08-01T16:33:37.840Z,92013.25
2022-08-01T16:36:30.296Z,92009.31
2022-08-01T16:39:33.921Z,92011.75
2022-08-01T16:42:38.933Z,92017.28
2022-08-01T16:45:43.823Z,92026.72
2022-08-01T16:48:47.371Z,92023.81
2022-08-01T16:51:50.763Z,92017.34
2022-08-01T16:54:54.072Z,92021.75
2022-08-01T16:57:58.491Z,92019.25
2022-08-01T17:02:01.101Z,92016.78
2022-08-01T17:04:25.100Z,92024.81
2022-08-01T17:07:28.756Z,92021.63
2022-08-01T17:10:32.136Z,92018.56
2022-08-01T17:13:35.739Z,92014.81
2022-08-01T17:16:39.026Z,92016.63
2022-08-01T17:19:42.598Z,92012.78
2022-08-01T17:22:45.934Z,92008.75
2022-08-01T17:25:49.444Z,92006.72
2022-08-01T17:28:52.595Z,92016.22
2022-08-01T17:31:55.956Z,92017.41
2022-08-01T17:34:59.468Z,92013.81
2022-08-01T17:38:02.840Z,92026.47
2022-08-01T17:41:06.528Z,92020.94
2022-08-01T17:44:10.105Z,92026.25
2022-08-01T17:47:28.816Z,92024.16
2022-08-01T17:50:37.161Z,92027.28
2022-08-01T17:53:56.772Z,92029.94
2022-08-01T17:57:01.351Z,92026.34
2022-08-01T18:00:06.874Z,92033.03
2022-08-01T18:03:11.311Z,92038.25
2022-08-01T18:06:19.710Z,92037.78
2022-08-01T18:09:26.368Z,92040.97
2022-08-01T18:12:29.504Z,92047.34
2022-08-01T18:15:32.939Z,92037.75
2022-08-01T18:18:39.309Z,92045.91
2022-08-01T18:21:43.094Z,92045.56
2022-08-01T18:24:46.334Z,92045.50
2022-08-01T18:28:23.315Z,92049.28
2022-08-01T18:31:13.714Z,92056.00
2022-08-01T18:34:16.936Z,92067.53
2022-08-01T18:37:19.942Z,92063.28
2022-08-01T18:40:25.301Z,92062.13
2022-08-01T18:43:28.498Z,92062.22
2022-08-01T18:46:31.605Z,92062.97
2022-08-01T18:49:34.786Z,92069.44
2022-08-01T18:52:37.932Z,92065.09
2022-08-01T18:55:40.916Z,92064.66
2022-08-01T18:58:44.677Z,92071.44
2022-08-01T19:01:47.815Z,92076.84
2022-08-01T19:04:50.905Z,92070.47
2022-08-01T19:08:06.429Z,92071.63
2022-08-01T19:11:10.594Z,92071.13
2022-08-01T19:14:13.730Z,92075.34
2022-08-01T19:17:16.829Z,92069.78
2022-08-01T19:20:19.883Z,92059.06
2022-08-01T19:23:42.015Z,92064.03
2022-08-01T19:27:05.013Z,92070.25
2022-08-01T19:30:12.053Z,92065.56
2022-08-01T19:33:16.504Z,92075.16
2022-08-01T19:36:34.522Z,92083.03
2022-08-01T19:39:52.175Z,92078.81
2022-08-01T19:42:57.945Z,92082.84
2022-08-01T19:46:01.091Z,92085.75
2022-08-01T19:49:04.159Z,92092.22
2022-08-01T19:52:08.512Z,92082.25
2022-08-01T19:55:12.329Z,92077.81
2022-08-01T19:58:31.630Z,92076.94
2022-08-01T20:01:36.463Z,92081.78
2022-08-01T20:04:39.643Z,92071.38
2022-08-01T20:07:43.215Z,92066.72
2022-08-01T20:10:48.066Z,92073.50
2022-08-01T20:13:51.932Z,92081.63
2022-08-01T20:16:56.487Z,92092.13
2022-08-01T20:19:59.611Z,92093.41
2022-08-01T20:23:03.735Z,92078.88
2022-08-01T20:26:07.548Z,92074.63
2022-08-01T20:29:14.482Z,92082.50
2022-08-01T20:32:18.623Z,92087.53
2022-08-01T20:35:51.044Z,92075.13
2022-08-01T20:38:45.910Z,92076.88
2022-08-01T20:41:59.866Z,92085.81
2022-08-01T20:45:04.930Z,92092.13
2022-08-01T20:48:09.243Z,92086.09
2022-08-01T20:51:15.173Z,92092.41
2022-08-01T20:54:18.245Z,92090.09
2022-08-01T20:57:28.341Z,92084.91
2022-08-01T21:00:33.043Z,92091.22
2022-08-01T21:03:46.195Z,92095.06
2022-08-01T21:06:59.842Z,92111.19
2022-08-01T21:10:11.508Z,92109.84
2022-08-01T21:13:21.339Z,92099.25
2022-08-01T21:16:30.716Z,92106.81
2022-08-01T21:19:35.528Z,92116.69
2022-08-01T21:22:41.067Z,92121.31
2022-08-01T21:25:44.975Z,92106.09
2022-08-01T21:28:54.569Z,92118.66
2022-08-01T21:32:15.070Z,92117.38
2022-08-01T21:35:19.740Z,92132.59
2022-08-01T21:38:23.112Z,92121.97
2022-08-01T21:42:04.848Z,92129.47
2022-08-01T21:44:50.547Z,92134.50
2022-08-01T21:47:54.083Z,92130.97
2022-08-01T21:51:00.167Z,92135.53
2022-08-01T21:54:27.404Z,92146.81
2022-08-01T21:57:57.359Z,92157.22
2022-08-01T22:01:27.879Z,92159.59
2022-08-01T22:04:56.616Z,92149.88
2022-08-01T22:08:06.415Z,92141.69
2022-08-01T22:11:12.231Z,92155.34
2022-08-01T22:14:17.507Z,92160.31
2022-08-01T22:17:25.380Z,92154.66
2022-08-01T22:20:29.679Z,92150.44
2022-08-01T22:23:37.426Z,92148.44
2022-08-01T22:26:42.548Z,92141.03
2022-08-01T22:29:46.224Z,92141.00
2022-08-01T22:33:15.300Z,92148.28
2022-08-01T22:36:13.009Z,92139.94
2022-08-01T22:39:19.149Z,92142.03
2022-08-01T22:42:32.326Z,92132.44
2022-08-01T22:45:48.731Z,92127.63
2022-08-01T22:49:09.673Z,92131.03
2022-08-01T22:52:18.349Z,92142.41
2022-08-01T22:55:22.572Z,92139.38
2022-08-01T22:58:29.547Z,92149.03
2022-08-01T23:01:35.266Z,92147.28
2022-08-01T23:04:48.702Z,92155.63
2022-08-01T23:07:59.802Z,92154.66
2022-08-01T23:11:06.308Z,92148.38
2022-08-01T23:14:10.316Z,92144.53
2022-08-01T23:17:27.411Z,92139.25
2022-08-01T23:20:35.795Z,92134.59
2022-08-01T23:23:40.357Z,92132.22
2022-08-01T23:26:44.113Z,92145.84
2022-08-01T23:29:50.375Z,92137.19
2022-08-01T23:32:53.989Z,92142.38
2022-08-01T23:35:57.088Z,92146.34
2022-08-01T23:39:00.273Z,92152.78
2022-08-01T23:42:07.493Z,92147.56
2022-08-01T23:45:11.200Z,92148.03
2022-08-01T23:48:14.637Z,92156.06
2022-08-01T23:51:24.586Z,92152.75
2022-08-01T23:54:28.413Z,92149.47
2022-08-01T23:57:31.883Z,92158.75
